createdAt,value
2023-10-15T00:03:37.969Z,99456.20
2023-10-15T00:09:58.123Z,99449.20
2023-10-15T00:16:27.750Z,99447.00
2023-10-15T00:22:23.122Z,99450.80
2023-10-15T00:27:28.671Z,99453.20
2023-10-15T00:32:58.645Z,99454.60
2023-10-15T00:46:39.311Z,99449.40
2023-10-15T00:52:12.163Z,99444.60
2023-10-15T00:57:28.224Z,99435.20
2023-10-15T01:03:02.677Z,99432.80
2023-10-15T01:08:53.464Z,99435.40
2023-10-15T01:13:57.540Z,99431.20
2023-10-15T01:19:13.391Z,99431.80
2023-10-15T01:25:10.831Z,99433.20
2023-10-15T01:30:19.043Z,99437.80
2023-10-15T01:42:43.914Z,99434.40
2023-10-15T01:56:00.212Z,99435.80
2023-10-15T02:01:18.462Z,99430.60
2023-10-15T02:07:40.821Z,99434.40
2023-10-15T02:35:56.351Z,99431.20
2023-10-15T02:42:35.672Z,99430.40
2023-10-15T02:48:34.390Z,99429.20
2023-10-15T02:53:41.034Z,99433.40
2023-10-15T03:00:07.196Z,99422.20
2023-10-15T03:05:16.377Z,99417.20
2023-10-15T03:25:37.470Z,99441.00
2023-10-15T03:31:18.391Z,99445.40
2023-10-15T03:37:16.319Z,99446.60
2023-10-15T03:43:17.066Z,99448.00
2023-10-15T03:49:37.547Z,99444.20
2023-10-15T04:01:50.544Z,99433.40
2023-10-15T04:07:20.649Z,99432.80
2023-10-15T04:12:28.729Z,99440.40
2023-10-15T04:17:33.015Z,99439.40
2023-10-15T04:22:46.559Z,99442.60
2023-10-15T04:35:13.318Z,99456.20
2023-10-15T04:41:42.593Z,99455.80
2023-10-15T04:48:14.145Z,99459.00
2023-10-15T04:53:25.859Z,99454.60
2023-10-15T04:58:30.237Z,99453.60
2023-10-15T05:20:10.532Z,99474.40
2023-10-15T05:26:56.644Z,99471.00
2023-10-15T05:32:56.510Z,99475.00
2023-10-15T05:38:01.399Z,99478.60
2023-10-15T05:43:06.417Z,99475.60
2023-10-15T05:48:10.335Z,99474.40
2023-10-15T05:53:15.892Z,99486.00
2023-10-15T05:58:20.935Z,99493.80
2023-10-15T06:03:25.389Z,99496.20
2023-10-15T06:08:30.327Z,99486.00
2023-10-15T06:13:34.614Z,99493.20
2023-10-15T06:18:38.872Z,99494.80
2023-10-15T06:23:44.479Z,99495.00
2023-10-15T06:28:48.349Z,99489.60
2023-10-15T06:33:52.640Z,99484.80
2023-10-15T06:38:58.498Z,99484.00
2023-10-15T06:44:02.664Z,99473.80
2023-10-15T06:49:09.453Z,99483.60
2023-10-15T07:10:34.827Z,99520.60
2023-10-15T07:15:39.744Z,99524.20
2023-10-15T07:27:59.739Z,99541.60
2023-10-15T07:33:32.473Z,99547.80
2023-10-15T07:38:38.109Z,99549.60
2023-10-15T07:52:26.611Z,99563.00
2023-10-15T07:59:15.591Z,99568.60
2023-10-15T08:04:19.973Z,99555.80
2023-10-15T08:09:24.280Z,99575.00
2023-10-15T08:14:53.293Z,99586.60
2023-10-15T08:27:57.321Z,99581.20
2023-10-15T08:34:39.934Z,99566.40
2023-10-15T08:39:43.858Z,99558.40
2023-10-15T08:44:51.623Z,99557.80
2023-10-15T08:49:57.136Z,99557.20
2023-10-15T08:55:02.072Z,99561.20
2023-10-15T09:01:44.403Z,99559.40
2023-10-15T09:06:50.257Z,99580.80
2023-10-15T09:11:56.287Z,99576.20
2023-10-15T09:17:00.489Z,99589.60
2023-10-15T09:22:33.796Z,99588.60
2023-10-15T09:34:40.354Z,99589.40
2023-10-15T09:39:45.365Z,99597.00
2023-10-15T09:45:32.585Z,99610.60
2023-10-15T09:50:40.930Z,99613.60
2023-10-15T09:55:47.914Z,99611.40
2023-10-15T10:01:10.947Z,99620.20
2023-10-15T10:14:12.924Z,99617.00
2023-10-15T10:20:33.501Z,99611.80
2023-10-15T10:25:46.785Z,99612.20
2023-10-15T10:31:01.457Z,99616.00
2023-10-15T10:36:19.772Z,99618.80
2023-10-15T10:41:47.805Z,99628.80
2023-10-15T10:46:58.090Z,99631.00
2023-10-15T10:52:20.869Z,99629.80
2023-10-15T10:57:33.331Z,99624.40
2023-10-15T11:02:37.494Z,99632.40
2023-10-15T11:07:42.689Z,99607.00
2023-10-15T11:12:50.881Z,99620.40
2023-10-15T11:18:28.317Z,99605.80
2023-10-15T11:23:35.220Z,99603.40
2023-10-15T11:28:39.341Z,99622.60
2023-10-15T11:33:43.658Z,99619.80
2023-10-15T11:38:48.907Z,99623.60
2023-10-15T11:43:52.834Z,99622.00
2023-10-15T11:56:05.240Z,99625.00
2023-10-15T12:01:12.248Z,99622.40
2023-10-15T12:06:18.192Z,99620.40
2023-10-15T12:21:42.970Z,99629.80
2023-10-15T12:26:49.550Z,99624.00
2023-10-15T12:32:00.046Z,99628.00
2023-10-15T12:51:29.467Z,99613.80
2023-10-15T12:56:33.635Z,99606.60
2023-10-15T13:02:55.723Z,99592.60
2023-10-15T13:08:50.924Z,99604.40
2023-10-15T13:14:56.704Z,99612.80
2023-10-15T13:20:51.962Z,99609.60
2023-10-15T13:27:37.542Z,99608.40
2023-10-15T13:34:03.745Z,99614.80
2023-10-15T13:39:16.990Z,99618.20
2023-10-15T13:44:56.861Z,99618.60
2023-10-15T13:50:52.784Z,99631.40
2023-10-15T13:55:56.953Z,99634.00
2023-10-15T14:01:00.977Z,99639.40
2023-10-15T14:06:46.647Z,99633.60
2023-10-15T14:11:51.936Z,99639.00
2023-10-15T14:16:56.719Z,99575.00
2023-10-15T14:36:08.849Z,99566.20
2023-10-15T14:41:42.561Z,99576.40
2023-10-15T14:46:46.612Z,99599.40
2023-10-15T14:51:50.563Z,99646.80
2023-10-15T14:56:55.236Z,99645.80
2023-10-15T15:09:38.008Z,99644.20
2023-10-15T15:15:55.088Z,99643.60
2023-10-15T15:21:50.293Z,99643.20
2023-10-15T15:34:25.485Z,99633.60
2023-10-15T15:40:43.005Z,99640.20
2023-10-15T15:47:02.623Z,99643.80
2023-10-15T15:53:25.136Z,99647.20
2023-10-15T16:07:39.208Z,99669.00
2023-10-15T16:12:46.363Z,99671.80
2023-10-15T16:17:52.902Z,99678.60
2023-10-15T16:22:59.111Z,99675.40
2023-10-15T16:35:10.031Z,99671.40
2023-10-15T16:40:14.606Z,99667.20
2023-10-15T16:45:19.757Z,99669.80
2023-10-15T16:57:45.718Z,99682.00
2023-10-15T17:02:49.560Z,99685.40
2023-10-15T17:07:53.663Z,99691.20
2023-10-15T17:27:30.839Z,99679.60
2023-10-15T17:33:04.918Z,99673.20
2023-10-15T17:46:34.213Z,99669.80
2023-10-15T17:51:42.627Z,99665.40
2023-10-15T17:56:46.960Z,99670.40
2023-10-15T18:01:51.189Z,99669.40
2023-10-15T18:07:23.282Z,99661.20
2023-10-15T18:12:28.417Z,99656.80
2023-10-15T18:28:05.482Z,99662.20
2023-10-15T18:33:12.969Z,99661.00
2023-10-15T18:38:18.251Z,99664.60
2023-10-15T18:44:44.818Z,99661.60
2023-10-15T19:00:14.478Z,99661.60
2023-10-15T19:05:20.309Z,99659.80
2023-10-15T19:11:17.682Z,99666.20
2023-10-15T19:16:21.970Z,99667.80
2023-10-15T19:21:26.345Z,99671.40
2023-10-15T19:33:33.999Z,99683.40
2023-10-15T19:38:38.230Z,99689.80
2023-10-15T19:44:08.166Z,99694.20
2023-10-15T19:49:12.488Z,99690.80
2023-10-15T19:54:17.991Z,99694.40
2023-10-15T19:59:22.509Z,99692.60
2023-10-15T20:04:52.126Z,99688.40
2023-10-15T20:09:56.327Z,99682.80
2023-10-15T20:16:16.551Z,99687.60
2023-10-15T20:21:20.677Z,99692.80
2023-10-15T20:26:34.378Z,99696.20
2023-10-15T20:31:39.147Z,99699.80
2023-10-15T20:55:59.178Z,99711.20
2023-10-15T21:08:24.870Z,99714.40
2023-10-15T21:32:45.073Z,99725.40
2023-10-15T21:52:15.313Z,99716.20
2023-10-15T22:04:25.993Z,99712.20
2023-10-15T22:09:30.525Z,99712.40
2023-10-15T22:14:50.364Z,99714.60
2023-10-15T22:20:28.912Z,99721.60
2023-10-15T22:25:35.828Z,99720.00
2023-10-15T22:30:39.922Z,99717.00
2023-10-15T22:35:47.509Z,99713.60
2023-10-15T22:40:52.213Z,99713.00
2023-10-15T22:45:56.396Z,99718.80
2023-10-15T22:51:00.467Z,99722.80
2023-10-15T22:56:04.979Z,99728.80
2023-10-15T23:01:10.053Z,99736.00
2023-10-15T23:06:16.290Z,99741.80
2023-10-15T23:12:45.647Z,99747.80
2023-10-15T23:17:49.734Z,99759.40
2023-10-15T23:22:58.162Z,99755.80
2023-10-15T23:28:14.900Z,99758.80
2023-10-15T23:33:22.156Z,99761.00
2023-10-15T23:39:21.006Z,99766.40
2023-10-15T23:51:24.735Z,99784.20
2023-10-15T23:56:33.407Z,99777.40
